Time;durP1;ratioP1;P1;durP2;ratioP2;P2;SDS_P1;SDS_P2;PMS_P1;PMS_P2;Temp;Humidity;BMP_temperature;BMP_pressure;BME280_temperature;BME280_humidity;BME280_pressure;Samples;Min_cycle;Max_cycle;Signal;HPM_P1;HPM_P2
2023/09/29 00:02:22;;;;;;;6.00;2.70;;;;;;;;;;5054946;28;20021;-86
2023/09/29 00:04:50;;;;;;;6.72;2.97;;;;;;;;;;5054721;28;20024;-86
2023/09/29 00:07:16;;;;;;;4.50;2.20;;;;;;;;;;5054636;28;20036;-86
2023/09/29 00:09:43;;;;;;;5.93;2.70;;;;;;;;;;5055045;28;20032;-86
2023/09/29 00:12:08;;;;;;;11.55;2.97;;;;;;;;;;5055062;28;20475;-85
2023/09/29 00:14:33;;;;;;;5.65;2.58;;;;;;;;;;5055657;28;20036;-86
2023/09/29 00:16:59;;;;;;;5.53;2.58;;;;;;;;;;5055013;28;20119;-86
2023/09/29 00:19:24;;;;;;;5.70;2.50;;;;;;;;;;5071654;28;20443;-85
2023/09/29 00:21:50;;;;;;;11.30;2.28;;;;;;;;;;5057287;28;20053;-86
2023/09/29 00:24:16;;;;;;;6.68;2.38;;;;;;;;;;5056453;28;20411;-86
2023/09/29 00:26:42;;;;;;;6.45;2.63;;;;;;;;;;5054085;28;20028;-85
2023/09/29 00:29:07;;;;;;;9.82;2.47;;;;;;;;;;5058818;28;20415;-86
2023/09/29 00:31:36;;;;;;;7.05;2.47;;;;;;;;;;5057580;28;20028;-85
2023/09/29 00:34:01;;;;;;;6.38;2.47;;;;;;;;;;5057237;28;20020;-86
2023/09/29 00:36:27;;;;;;;6.90;2.70;;;;;;;;;;5074854;28;20050;-86
2023/09/29 00:38:52;;;;;;;10.57;3.03;;;;;;;;;;5050541;28;20112;-86
2023/09/29 00:41:20;;;;;;;7.43;2.40;;;;;;;;;;5056108;28;20040;-86
2023/09/29 00:43:47;;;;;;;6.65;2.45;;;;;;;;;;5056161;28;20029;-86
2023/09/29 00:46:12;;;;;;;8.50;2.30;;;;;;;;;;5054840;28;20170;-84
2023/09/29 00:48:41;;;;;;;5.18;2.17;;;;;;;;;;5055401;28;20075;-86
2023/09/29 00:51:06;;;;;;;8.48;2.38;;;;;;;;;;5055555;28;20020;-85
2023/09/29 00:53:34;;;;;;;6.82;2.00;;;;;;;;;;5057148;28;20384;-86
2023/09/29 00:55:59;;;;;;;5.20;2.20;;;;;;;;;;5055180;28;20068;-86
2023/09/29 00:58:24;;;;;;;8.23;2.50;;;;;;;;;;5059383;28;20070;-86
2023/09/29 01:00:52;;;;;;;5.95;1.98;;;;;;;;;;5059466;28;20131;-86
2023/09/29 01:03:18;;;;;;;4.05;1.98;;;;;;;;;;5076757;28;20016;-85
2023/09/29 01:05:46;;;;;;;7.18;2.08;;;;;;;;;;5058394;28;20086;-86
2023/09/29 01:08:12;;;;;;;3.53;1.83;;;;;;;;;;5054279;28;20075;-86
2023/09/29 01:10:41;;;;;;;6.78;2.10;;;;;;;;;;5057635;28;20067;-86
2023/09/29 01:13:07;;;;;;;5.25;1.80;;;;;;;;;;5058577;28;20013;-86
2023/09/29 01:15:34;;;;;;;5.80;1.92;;;;;;;;;;5057942;28;20036;-86
2023/09/29 01:18:00;;;;;;;8.63;2.17;;;;;;;;;;5058275;28;20310;-86
2023/09/29 01:20:30;;;;;;;7.85;1.90;;;;;;;;;;5058595;28;20146;-86
2023/09/29 01:22:56;;;;;;;10.23;1.92;;;;;;;;;;5058066;28;20031;-86
2023/09/29 01:25:21;;;;;;;7.28;1.85;;;;;;;;;;5059902;28;20028;-86
2023/09/29 01:27:50;;;;;;;5.97;1.92;;;;;;;;;;5058891;28;20028;-86
2023/09/29 01:30:18;;;;;;;10.25;2.10;;;;;;;;;;5058392;28;20025;-86
2023/09/29 01:32:46;;;;;;;3.78;1.67;;;;;;;;;;5059810;28;20463;-86
2023/09/29 01:35:11;;;;;;;17.83;1.83;;;;;;;;;;5091938;28;20027;-86
2023/09/29 01:37:38;;;;;;;7.30;1.83;;;;;;;;;;5059864;28;20024;-86
2023/09/29 01:40:05;;;;;;;4.78;1.58;;;;;;;;;;5059858;28;20021;-86
2023/09/29 01:42:30;;;;;;;4.72;1.80;;;;;;;;;;5058998;28;20105;-86
2023/09/29 01:44:58;;;;;;;5.30;1.88;;;;;;;;;;5058450;28;20028;-87
2023/09/29 01:47:24;;;;;;;7.55;1.98;;;;;;;;;;5062283;28;20048;-87
2023/09/29 01:49:49;;;;;;;3.90;1.80;;;;;;;;;;5078845;28;20487;-86
2023/09/29 01:52:15;;;;;;;5.22;1.85;;;;;;;;;;5092575;28;20031;-87
2023/09/29 01:54:40;;;;;;;6.40;2.08;;;;;;;;;;5061429;28;20067;-86
2023/09/29 01:57:06;;;;;;;4.03;1.58;;;;;;;;;;5057829;28;20093;-86
2023/09/29 01:59:31;;;;;;;9.40;1.83;;;;;;;;;;5057575;28;20044;-87
2023/09/29 02:01:56;;;;;;;5.75;1.85;;;;;;;;;;5057123;28;20051;-86
2023/09/29 02:04:22;;;;;;;4.50;1.83;;;;;;;;;;5057169;28;20032;-86
2023/09/29 02:06:50;;;;;;;7.68;1.67;;;;;;;;;;5057826;28;20075;-87
2023/09/29 02:09:16;;;;;;;4.00;1.90;;;;;;;;;;5057036;28;20043;-86
2023/09/29 02:11:44;;;;;;;5.30;1.70;;;;;;;;;;5057792;28;20036;-86
2023/09/29 02:14:09;;;;;;;4.93;1.80;;;;;;;;;;5057907;28;20028;-87
2023/09/29 02:16:34;;;;;;;7.93;1.88;;;;;;;;;;5057351;28;20016;-87
2023/09/29 02:19:00;;;;;;;5.28;1.95;;;;;;;;;;5057523;28;20097;-87
2023/09/29 02:21:28;;;;;;;4.93;1.83;;;;;;;;;;5053057;28;20028;-86
2023/09/29 02:23:55;;;;;;;7.95;1.90;;;;;;;;;;5039097;28;20106;-87
2023/09/29 02:26:22;;;;;;;4.85;1.50;;;;;;;;;;5057162;28;20464;-86
2023/09/29 02:28:48;;;;;;;3.65;1.98;;;;;;;;;;5056863;28;20074;-86
2023/09/29 02:31:14;;;;;;;5.63;2.13;;;;;;;;;;5055999;28;20435;-86
2023/09/29 02:33:40;;;;;;;4.95;1.70;;;;;;;;;;5056700;28;20031;-86
2023/09/29 02:36:06;;;;;;;5.45;1.73;;;;;;;;;;5057730;28;20032;-86
2023/09/29 02:38:31;;;;;;;6.15;1.70;;;;;;;;;;5057286;28;20047;-86
2023/09/29 02:40:57;;;;;;;6.97;2.17;;;;;;;;;;5057017;28;20028;-86
2023/09/29 02:43:22;;;;;;;6.78;1.80;;;;;;;;;;5056779;28;20024;-86
2023/09/29 02:45:48;;;;;;;6.00;1.75;;;;;;;;;;5057310;28;20130;-86
2023/09/29 02:48:14;;;;;;;8.32;1.90;;;;;;;;;;5057670;28;20063;-86
2023/09/29 02:50:39;;;;;;;6.00;1.70;;;;;;;;;;5055488;28;20067;-87
2023/09/29 02:53:06;;;;;;;4.47;1.88;;;;;;;;;;5058556;28;20092;-86
2023/09/29 02:55:33;;;;;;;5.43;1.67;;;;;;;;;;5058202;28;20062;-86
2023/09/29 02:57:59;;;;;;;6.75;1.90;;;;;;;;;;5044024;28;20032;-87
2023/09/29 03:00:27;;;;;;;4.30;1.60;;;;;;;;;;5060003;28;20031;-86
2023/09/29 03:02:52;;;;;;;4.93;1.85;;;;;;;;;;5057057;28;20438;-86
2023/09/29 03:05:21;;;;;;;6.55;1.73;;;;;;;;;;5057215;28;20033;-86
2023/09/29 03:07:46;;;;;;;3.80;1.55;;;;;;;;;;5057446;28;20017;-86
2023/09/29 03:10:18;;;;;;;3.97;1.50;;;;;;;;;;5056110;28;20064;-86
2023/09/29 03:12:44;;;;;;;6.47;2.20;;;;;;;;;;5052002;28;20467;-86
2023/09/29 03:15:11;;;;;;;4.78;1.85;;;;;;;;;;5055985;28;20341;-86
2023/09/29 03:17:37;;;;;;;7.93;2.03;;;;;;;;;;5054544;28;20024;-86
2023/09/29 03:20:06;;;;;;;4.80;1.48;;;;;;;;;;5056192;28;20028;-86
2023/09/29 03:22:36;;;;;;;3.50;1.65;;;;;;;;;;5056193;28;20021;-86
2023/09/29 03:25:01;;;;;;;4.70;1.63;;;;;;;;;;5056747;28;20090;-87
2023/09/29 03:27:27;;;;;;;4.07;1.60;;;;;;;;;;5056217;28;20020;-85
2023/09/29 03:29:52;;;;;;;4.63;1.80;;;;;;;;;;5055942;28;20024;-87
2023/09/29 03:32:17;;;;;;;2.60;1.20;;;;;;;;;;5055318;28;20035;-86
2023/09/29 03:34:43;;;;;;;5.88;1.85;;;;;;;;;;5055813;28;20379;-86
2023/09/29 03:37:12;;;;;;;3.90;1.80;;;;;;;;;;5055389;28;20031;-86
2023/09/29 03:39:37;;;;;;;7.43;1.90;;;;;;;;;;5073948;28;20092;-86
2023/09/29 03:42:03;;;;;;;5.40;1.70;;;;;;;;;;5050745;28;20063;-86
2023/09/29 03:44:29;;;;;;;2.97;1.75;;;;;;;;;;5055892;28;20024;-86
2023/09/29 03:46:54;;;;;;;7.95;1.85;;;;;;;;;;5055843;28;20112;-87
2023/09/29 03:49:20;;;;;;;9.50;2.72;;;;;;;;;;5075116;28;20155;-87
2023/09/29 03:51:45;;;;;;;4.25;1.70;;;;;;;;;;5055278;28;20028;-87
2023/09/29 03:54:10;;;;;;;8.48;1.77;;;;;;;;;;5073611;28;20023;-87
2023/09/29 03:56:36;;;;;;;6.43;2.03;;;;;;;;;;5057618;28;20032;-86
2023/09/29 03:59:01;;;;;;;4.72;1.92;;;;;;;;;;5058931;28;20046;-87
2023/09/29 04:01:27;;;;;;;5.35;2.20;;;;;;;;;;5058836;28;20024;-86
2023/09/29 04:03:54;;;;;;;10.38;2.53;;;;;;;;;;5077267;28;20020;-86
2023/09/29 04:06:19;;;;;;;4.30;1.92;;;;;;;;;;5062050;28;20484;-85
2023/09/29 04:08:46;;;;;;;7.18;1.90;;;;;;;;;;5057404;28;20154;-87
2023/09/29 04:11:12;;;;;;;6.68;2.00;;;;;;;;;;5080957;28;20032;-85
2023/09/29 04:13:42;;;;;;;4.68;1.88;;;;;;;;;;5078588;28;20372;-87
2023/09/29 04:16:08;;;;;;;4.15;2.05;;;;;;;;;;5055820;28;20356;-86
2023/09/29 04:18:33;;;;;;;5.13;1.98;;;;;;;;;;5078834;28;20032;-86
2023/09/29 04:21:00;;;;;;;4.15;1.70;;;;;;;;;;5055133;28;20089;-86
2023/09/29 04:23:26;;;;;;;5.57;2.00;;;;;;;;;;5055363;28;20021;-86
2023/09/29 04:25:51;;;;;;;8.77;1.80;;;;;;;;;;5055340;28;20107;-86
2023/09/29 04:28:17;;;;;;;3.75;1.95;;;;;;;;;;5058478;28;20036;-85
2023/09/29 04:30:42;;;;;;;5.68;2.15;;;;;;;;;;5058543;28;20070;-85
2023/09/29 04:33:08;;;;;;;3.50;1.70;;;;;;;;;;5059305;28;20032;-86
2023/09/29 04:35:34;;;;;;;3.38;1.65;;;;;;;;;;5059608;28;20020;-86
2023/09/29 04:38:00;;;;;;;4.10;1.60;;;;;;;;;;5059303;28;20360;-86
2023/09/29 04:40:25;;;;;;;6.10;1.85;;;;;;;;;;5076945;28;20034;-86
2023/09/29 04:42:51;;;;;;;7.53;1.92;;;;;;;;;;5058836;28;20016;-86
2023/09/29 04:45:17;;;;;;;4.47;1.80;;;;;;;;;;5076826;28;20020;-87
2023/09/29 04:47:45;;;;;;;4.45;1.73;;;;;;;;;;5073492;28;20115;-86
2023/09/29 04:50:10;;;;;;;4.68;1.80;;;;;;;;;;5059216;28;20020;-86
2023/09/29 04:52:35;;;;;;;6.50;2.00;;;;;;;;;;5076601;28;20093;-86
2023/09/29 04:55:01;;;;;;;9.23;1.80;;;;;;;;;;5058575;28;20024;-86
2023/09/29 04:57:26;;;;;;;6.03;2.20;;;;;;;;;;5058440;28;20046;-86
2023/09/29 04:59:52;;;;;;;3.28;1.42;;;;;;;;;;5059237;28;20047;-86
2023/09/29 05:02:20;;;;;;;3.85;1.70;;;;;;;;;;5093798;28;20017;-86
2023/09/29 05:04:45;;;;;;;5.13;1.77;;;;;;;;;;5058918;28;20486;-86
2023/09/29 05:07:12;;;;;;;2.55;1.63;;;;;;;;;;5058654;28;20070;-87
2023/09/29 05:09:37;;;;;;;2.90;1.45;;;;;;;;;;5060204;28;20046;-86
2023/09/29 05:12:04;;;;;;;4.10;1.90;;;;;;;;;;5061040;28;20028;-86
2023/09/29 05:14:29;;;;;;;3.00;1.85;;;;;;;;;;5060370;28;20039;-86
2023/09/29 05:16:58;;;;;;;10.80;2.10;;;;;;;;;;5062640;28;20028;-87
2023/09/29 05:19:26;;;;;;;3.53;2.15;;;;;;;;;;5064959;28;20016;-87
2023/09/29 05:21:52;;;;;;;5.82;2.28;;;;;;;;;;5066060;28;20028;-86
2023/09/29 05:24:20;;;;;;;3.10;1.60;;;;;;;;;;5065431;28;20024;-87
2023/09/29 05:26:46;;;;;;;2.58;1.60;;;;;;;;;;5061867;28;20046;-90
2023/09/29 05:29:11;;;;;;;5.13;1.70;;;;;;;;;;5059298;28;20020;-90
2023/09/29 05:31:37;;;;;;;4.00;1.80;;;;;;;;;;5059446;28;20054;-91
2023/09/29 05:34:02;;;;;;;9.18;1.80;;;;;;;;;;5059494;28;20012;-90
2023/09/29 05:36:29;;;;;;;7.90;2.08;;;;;;;;;;5052827;28;20092;-91
2023/09/29 05:38:54;;;;;;;2.88;1.90;;;;;;;;;;5057563;28;20020;-89
2023/09/29 05:41:20;;;;;;;5.10;2.17;;;;;;;;;;5092196;28;20024;-90
2023/09/29 05:43:45;;;;;;;3.63;1.67;;;;;;;;;;5058004;28;20012;-90
2023/09/29 05:46:10;;;;;;;8.45;2.30;;;;;;;;;;5058736;28;20016;-90
2023/09/29 05:48:37;;;;;;;2.95;1.67;;;;;;;;;;5058465;28;20115;-90
2023/09/29 05:51:02;;;;;;;5.40;1.95;;;;;;;;;;5058247;28;20412;-90
2023/09/29 05:53:27;;;;;;;4.10;1.85;;;;;;;;;;5058474;28;20052;-90
2023/09/29 05:55:53;;;;;;;3.25;1.88;;;;;;;;;;5058296;28;20023;-90
2023/09/29 05:58:20;;;;;;;7.38;2.28;;;;;;;;;;5057769;28;20030;-90
2023/09/29 06:00:45;;;;;;;2.85;1.50;;;;;;;;;;5058083;28;20016;-90
2023/09/29 06:03:10;;;;;;;8.18;1.90;;;;;;;;;;5057929;28;20103;-90
2023/09/29 06:05:35;;;;;;;5.28;1.90;;;;;;;;;;5057907;28;20191;-91
2023/09/29 06:08:01;;;;;;;3.92;2.05;;;;;;;;;;5057748;28;20070;-90
2023/09/29 06:10:27;;;;;;;6.03;1.95;;;;;;;;;;5056861;28;20085;-90
2023/09/29 06:12:53;;;;;;;5.60;1.70;;;;;;;;;;5056118;28;20017;-91
2023/09/29 06:15:19;;;;;;;4.95;1.70;;;;;;;;;;5059375;28;20009;-92
2023/09/29 06:17:44;;;;;;;4.35;2.15;;;;;;;;;;5051677;28;20035;-92
2023/09/29 06:20:10;;;;;;;4.97;1.63;;;;;;;;;;5053402;28;20029;-93
2023/09/29 06:22:36;;;;;;;6.15;1.92;;;;;;;;;;5058404;28;20582;-93
2023/09/29 06:25:02;;;;;;;3.75;2.00;;;;;;;;;;5058843;28;20020;-92
2023/09/29 06:27:27;;;;;;;8.57;1.77;;;;;;;;;;5059481;28;20016;-92
2023/09/29 06:29:52;;;;;;;6.18;1.80;;;;;;;;;;5060018;28;20095;-92
2023/09/29 06:32:18;;;;;;;5.55;2.13;;;;;;;;;;5062714;28;20031;-92
2023/09/29 06:34:50;;;;;;;4.78;1.92;;;;;;;;;;5058326;28;20039;-92
2023/09/29 06:37:15;;;;;;;2.88;1.63;;;;;;;;;;5050168;28;20028;-93
2023/09/29 06:39:40;;;;;;;6.38;1.83;;;;;;;;;;5057409;28;20037;-92
2023/09/29 06:42:07;;;;;;;8.32;1.65;;;;;;;;;;5058043;28;20368;-93
2023/09/29 06:44:33;;;;;;;7.72;1.67;;;;;;;;;;5057415;28;20024;-93
2023/09/29 06:46:59;;;;;;;5.40;1.80;;;;;;;;;;5057138;28;20042;-93
2023/09/29 06:49:24;;;;;;;3.70;1.33;;;;;;;;;;5056443;28;20535;-92
2023/09/29 06:51:50;;;;;;;6.00;1.52;;;;;;;;;;5089407;28;20078;-92
2023/09/29 06:54:15;;;;;;;4.63;2.10;;;;;;;;;;5056031;28;20022;-92
2023/09/29 06:56:40;;;;;;;5.70;1.65;;;;;;;;;;5048018;28;20070;-92
2023/09/29 06:59:08;;;;;;;4.90;1.67;;;;;;;;;;5086536;28;20020;-93
2023/09/29 07:01:34;;;;;;;3.17;1.75;;;;;;;;;;5057103;28;20063;-92
2023/09/29 07:03:59;;;;;;;5.43;1.58;;;;;;;;;;5056991;28;20076;-92
2023/09/29 07:06:25;;;;;;;5.63;1.80;;;;;;;;;;5066742;28;20020;-92
2023/09/29 07:08:51;;;;;;;7.15;2.08;;;;;;;;;;5056975;28;20027;-92
2023/09/29 07:11:16;;;;;;;5.53;1.80;;;;;;;;;;5042794;28;20017;-92
2023/09/29 07:13:42;;;;;;;3.97;1.50;;;;;;;;;;5056669;28;20052;-92
2023/09/29 07:16:07;;;;;;;3.78;1.92;;;;;;;;;;5056920;28;20024;-93
2023/09/29 07:18:33;;;;;;;5.05;2.00;;;;;;;;;;5074812;28;20020;-93
2023/09/29 07:20:58;;;;;;;5.63;1.92;;;;;;;;;;5056747;28;20021;-92
2023/09/29 07:23:29;;;;;;;9.95;1.75;;;;;;;;;;5074679;28;20020;-93
2023/09/29 07:25:55;;;;;;;3.10;1.52;;;;;;;;;;5057183;28;20344;-92
2023/09/29 07:28:23;;;;;;;4.55;1.92;;;;;;;;;;5057688;28;20083;-92
2023/09/29 07:30:50;;;;;;;5.85;2.20;;;;;;;;;;5057885;28;20023;-92
2023/09/29 07:33:16;;;;;;;3.03;1.63;;;;;;;;;;5076273;28;20095;-93
2023/09/29 07:35:43;;;;;;;3.78;1.85;;;;;;;;;;5058245;28;20148;-93
2023/09/29 07:38:08;;;;;;;6.18;1.92;;;;;;;;;;5059860;28;20063;-92
2023/09/29 07:40:36;;;;;;;3.58;1.60;;;;;;;;;;5074954;28;20025;-92
2023/09/29 07:43:01;;;;;;;3.33;1.80;;;;;;;;;;5058273;28;20059;-92
2023/09/29 07:45:27;;;;;;;5.53;1.65;;;;;;;;;;5060395;28;20512;-92
2023/09/29 07:47:52;;;;;;;6.40;1.80;;;;;;;;;;5059776;28;20115;-92
2023/09/29 07:50:19;;;;;;;8.10;1.80;;;;;;;;;;5057096;28;20499;-92
2023/09/29 07:52:44;;;;;;;8.55;1.95;;;;;;;;;;5055955;28;20017;-93
2023/09/29 07:55:11;;;;;;;3.40;1.60;;;;;;;;;;5058073;28;20021;-93
2023/09/29 07:57:36;;;;;;;4.93;1.45;;;;;;;;;;5053565;28;20031;-93
2023/09/29 08:00:04;;;;;;;6.85;1.77;;;;;;;;;;5045030;28;20016;-93
2023/09/29 08:02:30;;;;;;;4.15;2.08;;;;;;;;;;5054132;28;20476;-91
2023/09/29 08:04:56;;;;;;;2.95;1.42;;;;;;;;;;5056133;28;20038;-92
2023/09/29 08:07:23;;;;;;;6.55;2.10;;;;;;;;;;5056023;28;20025;-93
2023/09/29 08:09:50;;;;;;;5.70;2.05;;;;;;;;;;5059353;28;20024;-93
2023/09/29 08:12:19;;;;;;;5.68;2.17;;;;;;;;;;5055113;28;20051;-92
2023/09/29 08:14:45;;;;;;;4.13;1.58;;;;;;;;;;5055243;28;20021;-93
2023/09/29 08:17:10;;;;;;;5.32;1.92;;;;;;;;;;5066037;28;20027;-93
2023/09/29 08:19:35;;;;;;;4.22;1.73;;;;;;;;;;5055818;28;20025;-92
2023/09/29 08:22:02;;;;;;;8.82;2.65;;;;;;;;;;5054673;28;20013;-92
2023/09/29 08:24:27;;;;;;;6.50;2.13;;;;;;;;;;5071698;28;20107;-93
2023/09/29 08:26:55;;;;;;;4.68;1.92;;;;;;;;;;5073418;28;20055;-92
2023/09/29 08:29:20;;;;;;;6.65;2.45;;;;;;;;;;5055531;28;20115;-92
2023/09/29 08:31:46;;;;;;;4.22;1.67;;;;;;;;;;5055568;28;20113;-92
2023/09/29 08:34:11;;;;;;;3.30;1.50;;;;;;;;;;5054582;28;20118;-91
2023/09/29 08:36:37;;;;;;;6.90;2.58;;;;;;;;;;5049536;28;20024;-93
2023/09/29 08:39:02;;;;;;;5.00;2.15;;;;;;;;;;5056319;28;20088;-93
2023/09/29 08:41:29;;;;;;;10.43;2.83;;;;;;;;;;5074054;28;20024;-92
2023/09/29 08:43:54;;;;;;;7.38;2.28;;;;;;;;;;5055816;28;20024;-91
2023/09/29 08:46:20;;;;;;;4.57;1.83;;;;;;;;;;5073972;28;20505;-93
2023/09/29 08:48:50;;;;;;;6.18;2.47;;;;;;;;;;5057231;28;20017;-92
2023/09/29 08:51:15;;;;;;;5.95;2.30;;;;;;;;;;5057000;28;20017;-93
2023/09/29 08:53:42;;;;;;;6.20;2.50;;;;;;;;;;5055910;28;20021;-92
2023/09/29 08:56:11;;;;;;;4.15;1.05;;;;;;;;;;5057205;28;20402;-91
2023/09/29 08:58:37;;;;;;;10.30;2.10;;;;;;;;;;5057327;28;20024;-92
2023/09/29 09:01:03;;;;;;;8.73;2.53;;;;;;;;;;5060959;28;20013;-89
2023/09/29 09:03:29;;;;;;;8.75;2.55;;;;;;;;;;5057326;28;20024;-88
2023/09/29 09:05:55;;;;;;;6.80;2.20;;;;;;;;;;5053756;28;20020;-88
2023/09/29 09:08:21;;;;;;;8.18;2.70;;;;;;;;;;5055785;28;20017;-88
2023/09/29 09:10:46;;;;;;;7.72;2.22;;;;;;;;;;5091330;28;20044;-88
2023/09/29 09:13:20;;;;;;;8.70;2.53;;;;;;;;;;5056188;28;20017;-88
2023/09/29 09:15:54;;;;;;;6.03;2.10;;;;;;;;;;5059091;28;20104;-88
2023/09/29 09:18:19;;;;;;;9.68;2.85;;;;;;;;;;5060026;28;20480;-88
2023/09/29 09:20:45;;;;;;;7.63;2.10;;;;;;;;;;5058983;28;20031;-88
2023/09/29 09:23:11;;;;;;;10.00;1.98;;;;;;;;;;5058464;28;20107;-86
2023/09/29 09:25:41;;;;;;;10.02;1.80;;;;;;;;;;5058137;28;20020;-88
2023/09/29 09:28:14;;;;;;;8.38;2.47;;;;;;;;;;5059281;28;20032;-88
2023/09/29 09:30:41;;;;;;;6.35;2.55;;;;;;;;;;5058113;28;20123;-87
2023/09/29 09:33:06;;;;;;;5.50;2.22;;;;;;;;;;5058851;28;20108;-87
2023/09/29 09:35:33;;;;;;;8.40;2.28;;;;;;;;;;5051634;28;20047;-87
2023/09/29 09:38:04;;;;;;;5.25;1.70;;;;;;;;;;5074533;28;20510;-87
2023/09/29 09:40:31;;;;;;;6.63;1.85;;;;;;;;;;5058084;28;20107;-88
2023/09/29 09:43:02;;;;;;;8.27;2.10;;;;;;;;;;5066857;28;20040;-88
2023/09/29 09:45:34;;;;;;;7.25;1.80;;;;;;;;;;5058423;28;20066;-88
2023/09/29 09:48:01;;;;;;;10.85;2.45;;;;;;;;;;5057770;28;20029;-88
2023/09/29 09:50:28;;;;;;;8.32;2.40;;;;;;;;;;5057450;28;20016;-87
2023/09/29 09:52:54;;;;;;;7.63;2.80;;;;;;;;;;5057137;28;20016;-87
2023/09/29 09:55:27;;;;;;;5.70;1.52;;;;;;;;;;5056858;28;20119;-87
2023/09/29 09:57:57;;;;;;;9.68;2.30;;;;;;;;;;5058319;28;20383;-88
2023/09/29 10:00:24;;;;;;;9.77;2.10;;;;;;;;;;5058758;28;20347;-88
2023/09/29 10:02:57;;;;;;;10.50;2.78;;;;;;;;;;5055607;28;20102;-87
2023/09/29 10:05:24;;;;;;;9.65;2.53;;;;;;;;;;5059986;28;20017;-88
2023/09/29 10:07:51;;;;;;;7.22;2.03;;;;;;;;;;5060288;28;20021;-88
2023/09/29 10:10:23;;;;;;;7.95;2.10;;;;;;;;;;5061458;28;20028;-88
2023/09/29 10:12:53;;;;;;;5.55;2.22;;;;;;;;;;5071800;28;20066;-88
2023/09/29 10:15:18;;;;;;;10.10;2.20;;;;;;;;;;5057854;28;20013;-87
2023/09/29 10:17:44;;;;;;;3.60;1.05;;;;;;;;;;5085482;28;20540;-86
2023/09/29 10:20:29;;;;;;;8.40;1.90;;;;;;;;;;5064323;28;20024;-88
2023/09/29 10:23:10;;;;;;;14.13;2.40;;;;;;;;;;5057422;28;20197;-88
2023/09/29 10:25:36;;;;;;;9.70;2.10;;;;;;;;;;5059073;28;20044;-85
2023/09/29 10:28:06;;;;;;;7.82;2.10;;;;;;;;;;5058225;28;20483;-88
2023/09/29 10:30:32;;;;;;;9.63;1.95;;;;;;;;;;5061935;28;20100;-88
2023/09/29 10:33:06;;;;;;;7.75;1.73;;;;;;;;;;5057268;28;20032;-88
2023/09/29 10:35:33;;;;;;;7.10;1.50;;;;;;;;;;5056589;28;20111;-88
2023/09/29 10:38:04;;;;;;;6.45;1.08;;;;;;;;;;5074337;28;20080;-87
2023/09/29 10:40:32;;;;;;;2.80;0.95;;;;;;;;;;5074090;28;20004;-87
2023/09/29 10:43:01;;;;;;;8.07;2.22;;;;;;;;;;5058479;28;20451;-87
2023/09/29 10:45:36;;;;;;;3.55;1.30;;;;;;;;;;5057045;28;20120;-88
2023/09/29 10:48:08;;;;;;;8.07;2.05;;;;;;;;;;5080226;28;20520;-88
2023/09/29 10:50:40;;;;;;;5.20;1.85;;;;;;;;;;5056280;28;20021;-88
2023/09/29 10:53:07;;;;;;;8.40;1.65;;;;;;;;;;5055054;28;20116;-88
2023/09/29 10:55:33;;;;;;;5.28;1.63;;;;;;;;;;5055202;28;20075;-87
2023/09/29 10:57:59;;;;;;;6.75;1.60;;;;;;;;;;5049803;28;20024;-88
2023/09/29 11:00:24;;;;;;;2.03;1.17;;;;;;;;;;5043379;28;20112;-88
2023/09/29 11:02:50;;;;;;;3.45;1.35;;;;;;;;;;5051400;28;20025;-88
2023/09/29 11:05:16;;;;;;;3.92;1.50;;;;;;;;;;5056557;28;20136;-87
2023/09/29 11:07:44;;;;;;;8.73;1.60;;;;;;;;;;5056120;28;20016;-87
2023/09/29 11:10:13;;;;;;;3.55;1.58;;;;;;;;;;5056665;28;20025;-88
2023/09/29 11:12:40;;;;;;;3.58;1.35;;;;;;;;;;5056076;28;20048;-88
2023/09/29 11:15:09;;;;;;;5.70;1.40;;;;;;;;;;5056498;28;20024;-87
2023/09/29 11:17:46;;;;;;;5.45;1.23;;;;;;;;;;5074316;28;20024;-87
2023/09/29 11:20:27;;;;;;;5.97;1.67;;;;;;;;;;5057573;28;20015;-87
2023/09/29 11:23:00;;;;;;;5.28;1.60;;;;;;;;;;5055831;28;20093;-87
2023/09/29 11:25:29;;;;;;;6.80;1.40;;;;;;;;;;5055033;28;20013;-86
2023/09/29 11:27:55;;;;;;;3.22;1.30;;;;;;;;;;5057847;28;20017;-87
2023/09/29 11:30:24;;;;;;;4.88;1.90;;;;;;;;;;5058798;28;20047;-87
2023/09/29 11:32:49;;;;;;;7.53;1.80;;;;;;;;;;5058057;28;20028;-87
2023/09/29 11:35:16;;;;;;;6.90;1.85;;;;;;;;;;5060508;28;20070;-88
2023/09/29 11:37:42;;;;;;;6.45;1.10;;;;;;;;;;5056752;28;20066;-88
2023/09/29 11:40:11;;;;;;;6.63;1.50;;;;;;;;;;5055850;28;20029;-87
2023/09/29 11:42:40;;;;;;;6.53;1.55;;;;;;;;;;5057592;28;20472;-87
2023/09/29 11:45:08;;;;;;;4.38;1.63;;;;;;;;;;5055113;28;20047;-87
2023/09/29 11:47:34;;;;;;;3.17;1.50;;;;;;;;;;5055366;28;20012;-88
2023/09/29 11:50:03;;;;;;;6.70;1.73;;;;;;;;;;5055470;28;20034;-87
2023/09/29 11:52:29;;;;;;;5.13;1.50;;;;;;;;;;5054694;28;20540;-87
2023/09/29 11:54:54;;;;;;;7.57;1.48;;;;;;;;;;5072295;28;20102;-87
2023/09/29 11:57:20;;;;;;;5.53;1.60;;;;;;;;;;5072863;28;20020;-87
2023/09/29 11:59:48;;;;;;;5.03;1.75;;;;;;;;;;5054547;28;20031;-87
2023/09/29 12:02:16;;;;;;;5.47;1.90;;;;;;;;;;5055021;28;20021;-86
2023/09/29 12:04:42;;;;;;;7.53;2.08;;;;;;;;;;5054466;28;20020;-87
2023/09/29 12:07:10;;;;;;;5.85;1.90;;;;;;;;;;5055466;28;20031;-87
2023/09/29 12:09:36;;;;;;;5.30;2.38;;;;;;;;;;5054035;28;20032;-88
2023/09/29 12:12:02;;;;;;;5.80;2.15;;;;;;;;;;5054568;28;20092;-87
2023/09/29 12:14:27;;;;;;;9.75;2.20;;;;;;;;;;5054653;28;20044;-87
2023/09/29 12:16:53;;;;;;;7.70;2.00;;;;;;;;;;5054741;28;20013;-88
2023/09/29 12:19:20;;;;;;;7.70;2.10;;;;;;;;;;5051235;28;20048;-88
2023/09/29 12:21:45;;;;;;;10.25;2.38;;;;;;;;;;5050251;28;20039;-86
2023/09/29 12:24:11;;;;;;;9.50;2.45;;;;;;;;;;5055132;28;20021;-87
2023/09/29 12:26:36;;;;;;;6.93;2.13;;;;;;;;;;5055088;28;20112;-87
2023/09/29 12:29:05;;;;;;;6.13;2.33;;;;;;;;;;5073156;28;20098;-87
2023/09/29 12:31:30;;;;;;;5.40;2.03;;;;;;;;;;5054466;28;20078;-87
2023/09/29 12:33:56;;;;;;;6.60;2.67;;;;;;;;;;5054661;28;20024;-88
2023/09/29 12:36:22;;;;;;;11.07;3.10;;;;;;;;;;5056767;28;20025;-87
2023/09/29 12:38:48;;;;;;;8.00;3.63;;;;;;;;;;5057388;28;20013;-87
2023/09/29 12:41:15;;;;;;;9.05;3.58;;;;;;;;;;5052736;28;20152;-87
2023/09/29 12:43:43;;;;;;;5.05;3.25;;;;;;;;;;5055623;28;20036;-87
2023/09/29 12:46:09;;;;;;;13.25;4.30;;;;;;;;;;5086457;28;20017;-88
2023/09/29 12:48:35;;;;;;;2.85;1.33;;;;;;;;;;5060870;28;20082;-88
2023/09/29 12:51:01;;;;;;;3.97;1.27;;;;;;;;;;5063282;28;20135;-88
2023/09/29 12:53:27;;;;;;;1.45;0.80;;;;;;;;;;5061459;28;20021;-89
2023/09/29 12:55:52;;;;;;;10.70;1.60;;;;;;;;;;5059203;28;20027;-89
2023/09/29 12:58:18;;;;;;;3.00;1.20;;;;;;;;;;5063378;28;20095;-89
2023/09/29 13:00:43;;;;;;;2.95;1.40;;;;;;;;;;5058166;28;20028;-88
2023/09/29 13:03:09;;;;;;;1.88;1.10;;;;;;;;;;5057633;28;20497;-89
2023/09/29 13:05:37;;;;;;;3.67;1.17;;;;;;;;;;5061731;28;20025;-89
2023/09/29 13:08:03;;;;;;;4.75;1.33;;;;;;;;;;5057888;28;20107;-85
2023/09/29 13:10:35;;;;;;;7.32;1.27;;;;;;;;;;5059031;28;20109;-92
2023/09/29 13:13:05;;;;;;;4.13;1.77;;;;;;;;;;5058864;28;20016;-92
2023/09/29 13:15:31;;;;;;;5.90;2.08;;;;;;;;;;5091634;28;20093;-92
2023/09/29 13:17:56;;;;;;;8.13;1.77;;;;;;;;;;5063007;28;20085;-93
2023/09/29 13:20:24;;;;;;;4.43;1.95;;;;;;;;;;5054067;28;20092;-93
2023/09/29 13:22:51;;;;;;;5.28;2.00;;;;;;;;;;5049268;28;20364;-92
2023/09/29 13:25:16;;;;;;;5.38;2.17;;;;;;;;;;5058314;28;20103;-90
2023/09/29 13:27:42;;;;;;;7.45;1.70;;;;;;;;;;5058440;28;20028;-92
2023/09/29 13:30:08;;;;;;;7.75;1.40;;;;;;;;;;5053526;28;20025;-92
2023/09/29 13:32:34;;;;;;;9.73;1.50;;;;;;;;;;5058425;28;20480;-92
2023/09/29 13:34:59;;;;;;;7.05;1.67;;;;;;;;;;5051723;28;20044;-91
2023/09/29 13:37:24;;;;;;;5.03;2.17;;;;;;;;;;5057305;28;20079;-91
2023/09/29 13:39:50;;;;;;;5.38;1.35;;;;;;;;;;5057970;28;20017;-91
2023/09/29 13:42:15;;;;;;;4.95;1.60;;;;;;;;;;5063068;28;20021;-92
2023/09/29 13:44:41;;;;;;;5.53;1.50;;;;;;;;;;5056828;28;20108;-91
2023/09/29 13:47:09;;;;;;;5.63;1.77;;;;;;;;;;5058256;28;20033;-89
2023/09/29 13:49:35;;;;;;;4.38;1.60;;;;;;;;;;5058637;28;20021;-90
2023/09/29 13:52:04;;;;;;;3.92;1.75;;;;;;;;;;5057553;28;20033;-88
2023/09/29 13:54:30;;;;;;;4.47;1.85;;;;;;;;;;5065393;28;20020;-88
2023/09/29 13:57:02;;;;;;;11.07;1.75;;;;;;;;;;5063676;28;20016;-90
2023/09/29 13:59:27;;;;;;;3.65;1.30;;;;;;;;;;5060029;28;20066;-91
2023/09/29 14:01:53;;;;;;;7.45;1.92;;;;;;;;;;5058080;28;20032;-90
2023/09/29 14:04:18;;;;;;;4.53;1.58;;;;;;;;;;5058140;28;20529;-90
2023/09/29 14:06:46;;;;;;;8.32;2.58;;;;;;;;;;5066836;28;20028;-90
2023/09/29 14:09:12;;;;;;;9.07;1.63;;;;;;;;;;5060941;28;20408;-88
2023/09/29 14:11:49;;;;;;;12.00;2.10;;;;;;;;;;5058761;28;20070;-89
2023/09/29 14:14:15;;;;;;;7.03;1.55;;;;;;;;;;5061895;28;20021;-89
2023/09/29 14:16:40;;;;;;;6.63;1.50;;;;;;;;;;5052532;28;20078;-88
2023/09/29 14:19:06;;;;;;;7.10;1.80;;;;;;;;;;5057808;28;20036;-89
2023/09/29 14:21:31;;;;;;;9.68;1.75;;;;;;;;;;5057666;28;20020;-88
2023/09/29 14:23:57;;;;;;;6.72;1.33;;;;;;;;;;5056875;28;20020;-88
2023/09/29 14:26:23;;;;;;;10.00;2.05;;;;;;;;;;5055855;28;20020;-89
2023/09/29 14:28:48;;;;;;;7.20;1.27;;;;;;;;;;5053702;28;20029;-87
2023/09/29 14:31:13;;;;;;;9.57;1.10;;;;;;;;;;5054540;28;20102;-88
2023/09/29 14:33:39;;;;;;;10.77;1.45;;;;;;;;;;5056079;28;20074;-88
2023/09/29 14:36:05;;;;;;;11.45;1.08;;;;;;;;;;5081680;28;20059;-89
2023/09/29 14:38:31;;;;;;;11.07;1.17;;;;;;;;;;5055269;28;20398;-89
2023/09/29 14:40:59;;;;;;;6.85;1.40;;;;;;;;;;5056043;28;20048;-89